Time,TemperatureF,DewpointF,PressureIn,WindDirection,WindDirectionDegrees,WindSpeedMPH,WindSpeedGustMPH,Humidity,HourlyPrecipIn,Conditions,Clouds,dailyrainin,SoftwareType,DateUTC
2013-01-27 00:03:00,16.0,13.0,-100.00,WNW,290,0.0,1.0,88,0.00,,,-99.99,,2013-01-27 05:03:00,
2013-01-27 00:12:00,17.0,14.0,-100.00,WNW,290,0.0,0.0,88,0.00,,,-99.99,,2013-01-27 05:12:00,
2013-01-27 00:22:00,16.0,13.0,-100.00,WSW,240,0.0,0.0,88,0.00,,,-99.99,,2013-01-27 05:22:00,
2013-01-27 00:32:00,17.0,14.0,-100.00,WSW,240,0.0,0.0,87,0.00,,,-99.99,,2013-01-27 05:32:00,
2013-01-27 00:41:00,17.0,14.0,-100.00,WSW,240,0.0,0.0,87,0.00,,,-99.99,,2013-01-27 05:41:00,
2013-01-27 00:52:00,16.0,13.0,-100.00,WSW,240,0.0,0.0,87,0.00,,,-99.99,,2013-01-27 05:52:00,
2013-01-27 01:02:00,16.0,13.0,-100.00,WSW,245,0.0,1.0,88,0.00,,,-99.99,,2013-01-27 06:02:00,
2013-01-27 01:11:00,16.0,13.0,-100.00,WSW,245,1.0,2.0,88,0.00,,,-99.99,,2013-01-27 06:11:00,
2013-01-27 01:21:00,16.0,14.0,-100.00,WSW,245,1.0,2.0,88,0.00,,,-99.99,,2013-01-27 06:21:00,
2013-01-27 01:32:00,16.0,13.0,-100.00,WSW,250,1.0,2.0,88,0.00,,,-99.99,,2013-01-27 06:32:00,
2013-01-27 01:42:00,17.0,14.0,-100.00,West,265,0.0,1.0,88,0.00,,,-99.99,,2013-01-27 06:42:00,
2013-01-27 01:52:00,16.0,13.0,-100.00,WSW,250,0.0,1.0,88,0.00,,,-99.99,,2013-01-27 06:52:00,
2013-01-27 02:01:00,16.0,13.0,-100.00,SW,215,0.0,0.0,88,0.00,,,-99.99,,2013-01-27 07:01:00,
2013-01-27 02:14:00,16.0,13.0,-100.00,WSW,245,0.0,0.0,88,0.00,,,-99.99,,2013-01-27 07:14:00,
2013-01-27 02:21:00,16.0,13.0,-100.00,SW,235,0.0,0.0,88,0.00,,,-99.99,,2013-01-27 07:21:00,
2013-01-27 02:32:00,16.0,13.0,-100.00,WSW,250,0.0,0.0,88,0.00,,,-99.99,,2013-01-27 07:32:00,
2013-01-27 02:41:00,17.0,14.0,-100.00,West,265,0.0,0.0,89,0.00,,,-99.99,,2013-01-27 07:41:00,
2013-01-27 02:51:00,16.0,13.0,-100.00,WNW,290,1.0,3.0,88,0.00,,,-99.99,,2013-01-27 07:51:00,
2013-01-27 03:01:00,17.0,14.0,-100.00,WNW,290,1.0,2.0,87,0.00,,,-99.99,,2013-01-27 08:01:00,
2013-01-27 03:11:00,17.0,14.0,-100.00,WNW,295,0.0,2.0,87,0.00,,,-99.99,,2013-01-27 08:11:00,
2013-01-27 03:22:00,17.0,14.0,-100.00,North,0,0.0,0.0,87,0.00,,,-99.99,,2013-01-27 08:22:00,
2013-01-27 03:32:00,17.0,13.0,-100.00,North,5,0.0,0.0,86,0.00,,,-99.99,,2013-01-27 08:32:00,
2013-01-27 03:42:00,17.0,14.0,-100.00,North,5,0.0,0.0,87,0.00,,,-99.99,,2013-01-27 08:42:00,
2013-01-27 03:52:00,17.0,14.0,-100.00,North,5,0.0,0.0,87,0.00,,,-99.99,,2013-01-27 08:52:00,
2013-01-27 04:03:00,16.0,13.0,-100.00,North,5,0.0,0.0,87,0.00,,,-99.99,,2013-01-27 09:03:00,
2013-01-27 04:11:00,16.0,13.0,-100.00,North,5,0.0,0.0,88,0.00,,,-99.99,,2013-01-27 09:11:00,
2013-01-27 04:21:00,16.0,13.0,-100.00,North,5,0.0,0.0,88,0.00,,,-99.99,,2013-01-27 09:21:00,
2013-01-27 04:32:00,16.0,13.0,-100.00,North,5,0.0,0.0,89,0.00,,,-99.99,,2013-01-27 09:32:00,
2013-01-27 04:41:00,15.0,13.0,-100.00,North,5,0.0,0.0,88,0.00,,,-99.99,,2013-01-27 09:41:00,
2013-01-27 04:51:00,15.0,12.0,-100.00,North,5,0.0,0.0,89,0.00,,,-99.99,,2013-01-27 09:51:00,
2013-01-27 05:01:00,14.0,12.0,-100.00,North,5,0.0,0.0,90,0.00,,,-99.99,,2013-01-27 10:01:00,
2013-01-27 05:11:00,15.0,12.0,-100.00,North,10,0.0,0.0,90,0.00,,,-99.99,,2013-01-27 10:11:00,
2013-01-27 05:21:00,13.0,11.0,-100.00,NE,40,0.0,0.0,90,0.00,,,-99.99,,2013-01-27 10:21:00,
2013-01-27 05:32:00,13.0,11.0,-100.00,NE,40,0.0,0.0,90,0.00,,,-99.99,,2013-01-27 10:32:00,
2013-01-27 05:42:00,13.0,11.0,-100.00,NE,40,0.0,0.0,89,0.00,,,-99.99,,2013-01-27 10:42:00,
2013-01-27 05:51:00,13.0,11.0,-100.00,NE,40,0.0,0.0,89,0.00,,,-99.99,,2013-01-27 10:51:00,
2013-01-27 06:01:00,14.0,12.0,-100.00,NE,40,0.0,0.0,90,0.00,,,-99.99,,2013-01-27 11:01:00,
2013-01-27 06:11:00,14.0,12.0,-100.00,NNE,30,1.0,2.0,89,0.00,,,-99.99,,2013-01-27 11:11:00,
2013-01-27 06:21:00,13.0,11.0,-100.00,NE,50,1.0,2.0,89,0.00,,,-99.99,,2013-01-27 11:21:00,
2013-01-27 06:32:00,12.0,9.0,-100.00,East,100,1.0,1.0,89,0.00,,,-99.99,,2013-01-27 11:32:00,
2013-01-27 06:42:00,12.0,9.0,-100.00,ESE,105,1.0,2.0,89,0.00,,,-99.99,,2013-01-27 11:42:00,
2013-01-27 06:52:00,12.0,9.0,-100.00,SE,130,0.0,2.0,88,0.00,,,-99.99,,2013-01-27 11:52:00,
2013-01-27 07:02:00,12.0,10.0,-100.00,ENE,75,0.0,2.0,89,0.00,,,-99.99,,2013-01-27 12:02:00,
2013-01-27 07:12:00,13.0,10.0,-100.00,ESE,110,0.0,1.0,88,0.00,,,-99.99,,2013-01-27 12:12:00,
2013-01-27 07:21:00,11.0,9.0,-100.00,East,90,1.0,2.0,88,0.00,,,-99.99,,2013-01-27 12:21:00,
2013-01-27 07:32:00,11.0,8.0,-100.00,East,80,1.0,2.0,88,0.00,,,-99.99,,2013-01-27 12:32:00,
2013-01-27 07:42:00,10.0,7.0,-100.00,East,100,2.0,3.0,87,0.00,,,-99.99,,2013-01-27 12:42:00,
2013-01-27 07:52:00,10.0,8.0,-100.00,East,90,1.0,3.0,88,0.00,,,-99.99,,2013-01-27 12:52:00,
2013-01-27 08:02:00,11.0,9.0,-100.00,ESE,120,2.0,2.0,89,0.00,,,-99.99,,2013-01-27 13:02:00,
2013-01-27 08:11:00,10.0,7.0,-100.00,ESE,120,2.0,3.0,88,0.00,,,-99.99,,2013-01-27 13:11:00,
2013-01-27 08:22:00,11.0,8.0,-100.00,ESE,120,2.0,3.0,88,0.00,,,-99.99,,2013-01-27 13:22:00,
2013-01-27 08:32:00,13.0,10.0,-100.00,SE,130,2.0,3.0,89,0.00,,,-99.99,,2013-01-27 13:32:00,
2013-01-27 08:42:00,13.0,10.0,-100.00,SSE,165,1.0,3.0,88,0.00,,,-99.99,,2013-01-27 13:42:00,
2013-01-27 08:52:00,14.0,11.0,-100.00,SE,135,2.0,4.0,88,0.00,,,-99.99,,2013-01-27 13:52:00,
2013-01-27 09:02:00,14.0,11.0,-100.00,ESE,115,3.0,5.0,88,0.00,,,-99.99,,2013-01-27 14:02:00,
2013-01-27 09:12:00,15.0,12.0,-100.00,SE,135,3.0,4.0,88,0.00,,,-99.99,,2013-01-27 14:12:00,
2013-01-27 09:22:00,15.0,12.0,-100.00,SE,130,3.0,6.0,87,0.00,,,-99.99,,2013-01-27 14:22:00,
2013-01-27 09:33:00,17.0,13.0,-100.00,ESE,110,2.0,3.0,87,0.00,,,-99.99,,2013-01-27 14:33:00,
2013-01-27 09:42:00,17.0,13.0,-100.00,ESE,120,2.0,4.0,83,0.00,,,-99.99,,2013-01-27 14:42:00,
2013-01-27 09:52:00,17.0,12.0,-100.00,SE,125,3.0,3.0,80,0.00,,,-99.99,,2013-01-27 14:52:00,
2013-01-27 10:02:00,18.0,12.0,-100.00,SE,130,2.0,4.0,77,0.00,,,-99.99,,2013-01-27 15:02:00,
2013-01-27 10:12:00,18.0,12.0,-100.00,SE,135,4.0,6.0,79,0.00,,,-99.99,,2013-01-27 15:12:00,
2013-01-27 10:22:00,18.0,12.0,-100.00,SE,140,5.0,7.0,78,0.00,,,-99.99,,2013-01-27 15:22:00,
2013-01-27 10:32:00,19.0,13.0,-100.00,SE,145,5.0,8.0,77,0.00,,,-99.99,,2013-01-27 15:32:00,
2013-01-27 10:42:00,20.0,13.0,-100.00,SE,140,6.0,9.0,74,0.00,,,-99.99,,2013-01-27 15:42:00,
2013-01-27 10:52:00,20.0,13.0,-100.00,SE,135,9.0,11.0,73,0.00,,,-99.99,,2013-01-27 15:52:00,
2013-01-27 11:02:00,21.0,13.0,-100.00,SE,135,6.0,10.0,70,0.00,,,-99.99,,2013-01-27 16:02:00,
2013-01-27 11:12:00,22.0,13.0,-100.00,SE,140,9.0,12.0,68,0.00,,,-99.99,,2013-01-27 16:12:00,
2013-01-27 11:21:00,22.0,13.0,-100.00,SE,140,10.0,12.0,66,0.00,,,-99.99,,2013-01-27 16:21:00,
2013-01-27 11:32:00,23.0,13.0,-100.00,SE,125,7.0,12.0,64,0.00,,,-99.99,,2013-01-27 16:32:00,
2013-01-27 11:42:00,23.0,13.0,-100.00,SE,125,9.0,11.0,63,0.00,,,-99.99,,2013-01-27 16:42:00,
2013-01-27 11:52:00,25.0,12.0,-100.00,SSE,165,4.0,9.0,58,0.00,,,-99.99,,2013-01-27 16:52:00,
2013-01-27 12:02:00,26.0,14.0,-100.00,SSE,155,4.0,11.0,59,0.00,,,-99.99,,2013-01-27 17:02:00,
2013-01-27 12:12:00,25.0,13.0,-100.00,SE,140,6.0,8.0,57,0.00,,,-99.99,,2013-01-27 17:12:00,
2013-01-27 12:22:00,26.0,13.0,-100.00,South,185,4.0,9.0,56,0.00,,,-99.99,,2013-01-27 17:22:00,
2013-01-27 12:32:00,26.0,13.0,-100.00,SE,145,4.0,8.0,59,0.00,,,-99.99,,2013-01-27 17:32:00,
2013-01-27 12:42:00,26.0,13.0,-100.00,SSE,160,2.0,7.0,59,0.00,,,-99.99,,2013-01-27 17:42:00,
2013-01-27 12:52:00,26.0,14.0,-100.00,South,170,2.0,6.0,58,0.00,,,-99.99,,2013-01-27 17:52:00,
2013-01-27 13:02:00,31.0,14.0,-100.00,SW,215,2.0,5.0,48,0.00,,,-99.99,,2013-01-27 18:02:00,
2013-01-27 13:12:00,29.0,13.0,-100.00,SE,130,3.0,6.0,52,0.00,,,-99.99,,2013-01-27 18:12:00,
2013-01-27 13:22:00,29.0,14.0,-100.00,South,175,2.0,6.0,53,0.00,,,-99.99,,2013-01-27 18:22:00,
2013-01-27 13:32:00,28.0,14.0,-100.00,SE,140,2.0,6.0,56,0.00,,,-99.99,,2013-01-27 18:32:00,
2013-01-27 13:42:00,29.0,15.0,-100.00,SE,140,1.0,4.0,55,0.00,,,-99.99,,2013-01-27 18:42:00,
2013-01-27 13:52:00,29.0,15.0,-100.00,SSW,195,0.0,4.0,54,0.00,,,-99.99,,2013-01-27 18:52:00,
2013-01-27 14:02:00,29.0,14.0,-100.00,South,180,2.0,5.0,54,0.00,,,-99.99,,2013-01-27 19:02:00,
2013-01-27 14:12:00,29.0,15.0,-100.00,SE,145,3.0,6.0,54,0.00,,,-99.99,,2013-01-27 19:12:00,
2013-01-27 14:22:00,29.0,15.0,-100.00,SE,135,3.0,6.0,55,0.00,,,-99.99,,2013-01-27 19:22:00,
2013-01-27 14:32:00,28.0,15.0,-100.00,SE,135,6.0,9.0,57,0.00,,,-99.99,,2013-01-27 19:32:00,
2013-01-27 14:42:00,28.0,15.0,-100.00,SE,140,6.0,9.0,55,0.00,,,-99.99,,2013-01-27 19:42:00,
2013-01-27 14:52:00,29.0,15.0,-100.00,ESE,115,4.0,8.0,55,0.00,,,-99.99,,2013-01-27 19:52:00,
2013-01-27 15:03:00,29.0,15.0,-100.00,SE,125,4.0,8.0,55,0.00,,,-99.99,,2013-01-27 20:03:00,
2013-01-27 15:12:00,29.0,15.0,-100.00,SE,130,5.0,8.0,55,-99.99,,,-99.99,,2013-01-27 20:12:00,
2013-01-27 15:22:00,29.0,15.0,-100.00,ESE,110,3.0,9.0,55,0.00,,,-99.99,,2013-01-27 20:22:00,
2013-01-27 15:33:00,29.0,15.0,-100.00,SE,145,3.0,7.0,56,0.00,,,-99.99,,2013-01-27 20:33:00,
2013-01-27 15:42:00,29.0,15.0,-100.00,SE,135,4.0,6.0,55,0.00,,,-99.99,,2013-01-27 20:42:00,
2013-01-27 15:52:00,29.0,15.0,-100.00,SE,130,6.0,9.0,55,0.00,,,-99.99,,2013-01-27 20:52:00,
2013-01-27 16:02:00,29.0,15.0,-100.00,SE,125,4.0,9.0,55,0.00,,,-99.99,,2013-01-27 21:02:00,
2013-01-27 16:12:00,29.0,15.0,-100.00,SE,135,9.0,10.0,55,0.00,,,-99.99,,2013-01-27 21:12:00,
2013-01-27 16:22:00,29.0,15.0,-100.00,SE,145,6.0,9.0,55,0.00,,,-99.99,,2013-01-27 21:22:00,
2013-01-27 16:33:00,29.0,16.0,-100.00,SE,140,4.0,9.0,56,0.00,,,-99.99,,2013-01-27 21:33:00,
2013-01-27 16:42:00,29.0,16.0,-100.00,SE,140,3.0,6.0,56,0.00,,,-99.99,,2013-01-27 21:42:00,
2013-01-27 16:52:00,29.0,16.0,-100.00,SE,140,4.0,6.0,56,0.00,,,-99.99,,2013-01-27 21:52:00,
2013-01-27 17:02:00,29.0,17.0,-100.00,SE,135,4.0,6.0,58,0.00,,,-99.99,,2013-01-27 22:02:00,
2013-01-27 17:12:00,29.0,17.0,-100.00,SE,125,6.0,7.0,59,0.00,,,-99.99,,2013-01-27 22:12:00,
2013-01-27 17:22:00,29.0,16.0,-100.00,SE,140,7.0,12.0,58,0.00,,,-99.99,,2013-01-27 22:22:00,
2013-01-27 17:32:00,29.0,16.0,-100.00,ESE,120,7.0,12.0,58,0.00,,,-99.99,,2013-01-27 22:32:00,
2013-01-27 17:42:00,29.0,17.0,-100.00,SE,130,7.0,12.0,59,0.00,,,-99.99,,2013-01-27 22:42:00,
2013-01-27 17:52:00,29.0,17.0,-100.00,SE,130,6.0,11.0,60,0.00,,,-99.99,,2013-01-27 22:52:00,
2013-01-27 18:02:00,29.0,16.0,-100.00,ESE,120,7.0,9.0,59,0.00,,,-99.99,,2013-01-27 23:02:00,
2013-01-27 18:12:00,29.0,17.0,-100.00,SE,130,3.0,8.0,61,0.00,,,-99.99,,2013-01-27 23:12:00,
2013-01-27 18:22:00,29.0,17.0,-100.00,SE,140,5.0,7.0,60,0.00,,,-99.99,,2013-01-27 23:22:00,
2013-01-27 18:32:00,28.0,17.0,-100.00,SE,130,6.0,9.0,61,0.00,,,-99.99,,2013-01-27 23:32:00,
2013-01-27 18:42:00,29.0,17.0,-100.00,SE,125,4.0,7.0,60,0.00,,,-99.99,,2013-01-27 23:42:00,
2013-01-27 18:52:00,29.0,16.0,-100.00,SE,125,6.0,8.0,59,0.00,,,-99.99,,2013-01-27 23:52:00,
2013-01-27 19:02:00,29.0,17.0,-100.00,SE,145,4.0,7.0,59,0.00,,,-99.99,,2013-01-28 00:02:00,
2013-01-27 19:11:00,29.0,16.0,-100.00,SSE,160,2.0,6.0,59,0.00,,,-99.99,,2013-01-28 00:11:00,
2013-01-27 19:21:00,29.0,17.0,-100.00,SE,135,3.0,5.0,60,0.00,,,-99.99,,2013-01-28 00:21:00,
2013-01-27 19:32:00,29.0,17.0,-100.00,ESE,120,1.0,5.0,61,0.00,,,-99.99,,2013-01-28 00:32:00,
2013-01-27 19:42:00,29.0,17.0,-100.00,SE,130,4.0,6.0,61,0.00,,,-99.99,,2013-01-28 00:42:00,
2013-01-27 19:51:00,29.0,17.0,-100.00,ESE,120,4.0,7.0,61,0.00,,,-99.99,,2013-01-28 00:51:00,
2013-01-27 20:02:00,28.0,17.0,-100.00,ESE,115,4.0,7.0,62,0.00,,,-99.99,,2013-01-28 01:02:00,
2013-01-27 20:11:00,28.0,17.0,-100.00,ESE,120,5.0,7.0,62,0.00,,,-99.99,,2013-01-28 01:11:00,
2013-01-27 20:22:00,28.0,17.0,-100.00,SE,125,6.0,9.0,62,0.00,,,-99.99,,2013-01-28 01:22:00,
2013-01-27 20:33:00,28.0,17.0,-100.00,ESE,120,6.0,9.0,63,0.00,,,-99.99,,2013-01-28 01:33:00,
2013-01-27 20:42:00,28.0,17.0,-100.00,ESE,120,6.0,9.0,63,0.00,,,-99.99,,2013-01-28 01:42:00,
2013-01-27 20:52:00,28.0,17.0,-100.00,SE,130,5.0,10.0,62,0.00,,,-99.99,,2013-01-28 01:52:00,
2013-01-27 21:02:00,28.0,17.0,-100.00,ESE,105,4.0,7.0,62,0.00,,,-99.99,,2013-01-28 02:02:00,
2013-01-27 21:11:00,28.0,17.0,-100.00,East,100,4.0,6.0,62,0.00,,,-99.99,,2013-01-28 02:11:00,
2013-01-27 21:22:00,28.0,17.0,-100.00,East,95,4.0,7.0,62,0.00,,,-99.99,,2013-01-28 02:22:00,
2013-01-27 21:32:00,28.0,17.0,-100.00,ESE,120,1.0,4.0,62,0.00,,,-99.99,,2013-01-28 02:32:00,
2013-01-27 21:42:00,28.0,17.0,-100.00,SE,140,1.0,3.0,62,0.00,,,-99.99,,2013-01-28 02:42:00,
2013-01-27 21:52:00,28.0,17.0,-100.00,ESE,110,4.0,6.0,62,0.00,,,-99.99,,2013-01-28 02:52:00,
2013-01-27 22:02:00,28.0,17.0,-100.00,SE,130,5.0,7.0,63,0.00,,,-99.99,,2013-01-28 03:02:00,
2013-01-27 22:12:00,28.0,17.0,-100.00,SE,135,7.0,9.0,62,0.00,,,-99.99,,2013-01-28 03:12:00,
2013-01-27 22:22:00,28.0,17.0,-100.00,ESE,115,7.0,11.0,61,0.00,,,-99.99,,2013-01-28 03:22:00,
2013-01-27 22:32:00,28.0,17.0,-100.00,ESE,115,6.0,10.0,61,0.00,,,-99.99,,2013-01-28 03:32:00,
2013-01-27 22:42:00,29.0,17.0,-100.00,SE,125,6.0,11.0,61,0.00,,,-99.99,,2013-01-28 03:42:00,
2013-01-27 22:52:00,29.0,17.0,-100.00,ESE,120,6.0,10.0,61,0.00,,,-99.99,,2013-01-28 03:52:00,
2013-01-27 23:02:00,29.0,17.0,-100.00,SE,135,4.0,9.0,60,0.00,,,-99.99,,2013-01-28 04:02:00,
2013-01-27 23:11:00,29.0,17.0,-100.00,SE,130,6.0,9.0,61,0.00,,,-99.99,,2013-01-28 04:11:00,
2013-01-27 23:22:00,29.0,17.0,-100.00,SE,130,4.0,9.0,61,0.00,,,-99.99,,2013-01-28 04:22:00,
2013-01-27 23:32:00,29.0,17.0,-100.00,ESE,120,4.0,7.0,61,0.00,,,-99.99,,2013-01-28 04:32:00,
2013-01-27 23:42:00,29.0,17.0,-100.00,SE,140,0.0,6.0,61,0.00,,,-99.99,,2013-01-28 04:42:00,
2013-01-27 23:52:00,29.0,17.0,-100.00,SE,140,3.0,4.0,61,0.00,,,-99.99,,2013-01-28 04:52:00,